sensor_id;sensor_type;location;lat;lon;timestamp;temperature;humidity
26304;DHT22;70693;48.680;8.890;2023-12-20T00:00:58;10.70;98.70
26304;DHT22;70693;48.680;8.890;2023-12-20T00:03:23;10.70;98.70
26304;DHT22;70693;48.680;8.890;2023-12-20T00:05:49;10.70;98.70
26304;DHT22;70693;48.680;8.890;2023-12-20T00:08:15;10.70;98.70
26304;DHT22;70693;48.680;8.890;2023-12-20T00:10:41;10.70;98.80
26304;DHT22;70693;48.680;8.890;2023-12-20T00:13:07;10.70;98.80
26304;DHT22;70693;48.680;8.890;2023-12-20T00:15:33;10.70;98.80
26304;DHT22;70693;48.680;8.890;2023-12-20T00:17:59;10.70;98.80
26304;DHT22;70693;48.680;8.890;2023-12-20T00:20:25;10.70;98.80
26304;DHT22;70693;48.680;8.890;2023-12-20T00:22:50;10.70;98.80
26304;DHT22;70693;48.680;8.890;2023-12-20T00:25:16;10.70;98.90
26304;DHT22;70693;48.680;8.890;2023-12-20T00:27:41;10.70;98.80
26304;DHT22;70693;48.680;8.890;2023-12-20T00:30:08;10.70;98.90
26304;DHT22;70693;48.680;8.890;2023-12-20T00:32:35;10.70;98.90
26304;DHT22;70693;48.680;8.890;2023-12-20T00:35:01;10.70;98.90
26304;DHT22;70693;48.680;8.890;2023-12-20T00:37:26;10.70;98.90
26304;DHT22;70693;48.680;8.890;2023-12-20T00:39:52;10.70;98.90
26304;DHT22;70693;48.680;8.890;2023-12-20T00:42:17;10.70;98.90
26304;DHT22;70693;48.680;8.890;2023-12-20T00:44:43;10.70;98.90
26304;DHT22;70693;48.680;8.890;2023-12-20T00:47:09;10.70;98.90
26304;DHT22;70693;48.680;8.890;2023-12-20T00:49:34;10.70;99.00
26304;DHT22;70693;48.680;8.890;2023-12-20T00:52:00;10.70;99.00
26304;DHT22;70693;48.680;8.890;2023-12-20T00:54:25;10.60;99.00
26304;DHT22;70693;48.680;8.890;2023-12-20T00:56:51;10.70;99.00
26304;DHT22;70693;48.680;8.890;2023-12-20T00:59:17;10.70;99.00
26304;DHT22;70693;48.680;8.890;2023-12-20T01:01:43;10.70;99.20
26304;DHT22;70693;48.680;8.890;2023-12-20T01:04:09;10.60;99.00
26304;DHT22;70693;48.680;8.890;2023-12-20T01:06:35;10.60;99.00
26304;DHT22;70693;48.680;8.890;2023-12-20T01:09:01;10.60;99.10
26304;DHT22;70693;48.680;8.890;2023-12-20T01:11:26;10.60;99.00
26304;DHT22;70693;48.680;8.890;2023-12-20T01:13:52;10.70;99.10
26304;DHT22;70693;48.680;8.890;2023-12-20T01:16:17;10.60;99.10
26304;DHT22;70693;48.680;8.890;2023-12-20T01:18:43;10.70;99.10
26304;DHT22;70693;48.680;8.890;2023-12-20T01:21:09;10.60;99.10
26304;DHT22;70693;48.680;8.890;2023-12-20T01:23:35;10.60;99.10
26304;DHT22;70693;48.680;8.890;2023-12-20T01:26:00;10.60;99.10
26304;DHT22;70693;48.680;8.890;2023-12-20T01:28:26;10.60;99.10
26304;DHT22;70693;48.680;8.890;2023-12-20T01:30:52;10.60;99.10
26304;DHT22;70693;48.680;8.890;2023-12-20T01:33:18;10.60;99.10
26304;DHT22;70693;48.680;8.890;2023-12-20T01:35:43;10.60;99.50
26304;DHT22;70693;48.680;8.890;2023-12-20T01:38:09;10.60;99.10
26304;DHT22;70693;48.680;8.890;2023-12-20T01:40:35;10.60;99.20
26304;DHT22;70693;48.680;8.890;2023-12-20T01:43:02;10.60;99.20
26304;DHT22;70693;48.680;8.890;2023-12-20T01:45:30;10.60;99.20
26304;DHT22;70693;48.680;8.890;2023-12-20T01:47:57;10.60;99.20
26304;DHT22;70693;48.680;8.890;2023-12-20T01:50:24;10.60;99.20
26304;DHT22;70693;48.680;8.890;2023-12-20T01:52:50;10.60;99.20
26304;DHT22;70693;48.680;8.890;2023-12-20T01:55:19;10.60;99.20
26304;DHT22;70693;48.680;8.890;2023-12-20T01:57:45;10.60;99.20
26304;DHT22;70693;48.680;8.890;2023-12-20T02:00:13;10.60;99.30
26304;DHT22;70693;48.680;8.890;2023-12-20T02:02:40;10.60;99.20
26304;DHT22;70693;48.680;8.890;2023-12-20T02:05:06;10.60;99.30
26304;DHT22;70693;48.680;8.890;2023-12-20T02:07:32;10.60;99.30
26304;DHT22;70693;48.680;8.890;2023-12-20T02:10:00;10.60;99.30
26304;DHT22;70693;48.680;8.890;2023-12-20T02:12:26;10.60;99.30
26304;DHT22;70693;48.680;8.890;2023-12-20T02:14:51;10.60;99.30
26304;DHT22;70693;48.680;8.890;2023-12-20T02:17:17;10.60;99.30
26304;DHT22;70693;48.680;8.890;2023-12-20T02:19:43;10.60;99.30
26304;DHT22;70693;48.680;8.890;2023-12-20T02:22:10;10.60;99.30
26304;DHT22;70693;48.680;8.890;2023-12-20T02:24:36;10.60;99.40
26304;DHT22;70693;48.680;8.890;2023-12-20T02:27:02;10.60;99.30
26304;DHT22;70693;48.680;8.890;2023-12-20T02:29:28;10.60;99.40
26304;DHT22;70693;48.680;8.890;2023-12-20T02:31:53;10.60;99.40
26304;DHT22;70693;48.680;8.890;2023-12-20T02:34:19;10.60;99.40
26304;DHT22;70693;48.680;8.890;2023-12-20T02:36:45;10.60;99.40
26304;DHT22;70693;48.680;8.890;2023-12-20T02:39:11;10.60;99.40
26304;DHT22;70693;48.680;8.890;2023-12-20T02:41:36;10.60;99.40
26304;DHT22;70693;48.680;8.890;2023-12-20T02:44:03;10.60;99.40
26304;DHT22;70693;48.680;8.890;2023-12-20T02:46:28;10.60;99.40
26304;DHT22;70693;48.680;8.890;2023-12-20T02:48:54;10.60;99.40
26304;DHT22;70693;48.680;8.890;2023-12-20T02:51:20;10.60;99.50
26304;DHT22;70693;48.680;8.890;2023-12-20T02:53:46;10.60;99.50
26304;DHT22;70693;48.680;8.890;2023-12-20T02:56:11;10.60;99.60
26304;DHT22;70693;48.680;8.890;2023-12-20T02:58:37;10.70;99.60
26304;DHT22;70693;48.680;8.890;2023-12-20T03:01:03;10.70;99.60
26304;DHT22;70693;48.680;8.890;2023-12-20T03:03:28;10.70;99.60
26304;DHT22;70693;48.680;8.890;2023-12-20T03:05:54;10.80;99.60
26304;DHT22;70693;48.680;8.890;2023-12-20T03:08:19;10.80;99.50
26304;DHT22;70693;48.680;8.890;2023-12-20T03:10:45;10.80;99.50
26304;DHT22;70693;48.680;8.890;2023-12-20T03:13:10;10.80;99.40
26304;DHT22;70693;48.680;8.890;2023-12-20T03:15:36;10.90;99.40
26304;DHT22;70693;48.680;8.890;2023-12-20T03:18:03;10.90;99.40
26304;DHT22;70693;48.680;8.890;2023-12-20T03:20:28;10.90;99.30
26304;DHT22;70693;48.680;8.890;2023-12-20T03:22:56;10.90;99.20
26304;DHT22;70693;48.680;8.890;2023-12-20T03:25:22;10.90;99.20
26304;DHT22;70693;48.680;8.890;2023-12-20T03:27:47;11.00;99.20
26304;DHT22;70693;48.680;8.890;2023-12-20T03:30:13;11.00;99.20
26304;DHT22;70693;48.680;8.890;2023-12-20T03:32:39;11.00;99.20
26304;DHT22;70693;48.680;8.890;2023-12-20T03:35:05;11.00;99.10
26304;DHT22;70693;48.680;8.890;2023-12-20T03:37:31;11.00;99.10
26304;DHT22;70693;48.680;8.890;2023-12-20T03:39:56;11.00;99.10
26304;DHT22;70693;48.680;8.890;2023-12-20T03:42:22;11.00;99.10
26304;DHT22;70693;48.680;8.890;2023-12-20T03:44:48;11.00;99.10
26304;DHT22;70693;48.680;8.890;2023-12-20T03:47:13;11.00;99.10
26304;DHT22;70693;48.680;8.890;2023-12-20T03:49:39;11.00;99.00
26304;DHT22;70693;48.680;8.890;2023-12-20T03:52:05;11.00;99.00
26304;DHT22;70693;48.680;8.890;2023-12-20T03:54:30;11.00;99.10
26304;DHT22;70693;48.680;8.890;2023-12-20T03:56:56;11.00;99.00
26304;DHT22;70693;48.680;8.890;2023-12-20T03:59:22;11.00;99.10
26304;DHT22;70693;48.680;8.890;2023-12-20T04:01:47;11.00;99.10
26304;DHT22;70693;48.680;8.890;2023-12-20T04:04:13;11.00;99.10
26304;DHT22;70693;48.680;8.890;2023-12-20T04:06:40;11.00;99.00
26304;DHT22;70693;48.680;8.890;2023-12-20T04:09:05;11.00;99.10
26304;DHT22;70693;48.680;8.890;2023-12-20T04:11:31;11.00;99.10
26304;DHT22;70693;48.680;8.890;2023-12-20T04:13:56;11.00;99.10
26304;DHT22;70693;48.680;8.890;2023-12-20T04:16:22;11.00;99.10
26304;DHT22;70693;48.680;8.890;2023-12-20T04:18:48;11.00;99.10
26304;DHT22;70693;48.680;8.890;2023-12-20T04:21:13;11.00;99.10
26304;DHT22;70693;48.680;8.890;2023-12-20T04:23:39;11.00;99.10
26304;DHT22;70693;48.680;8.890;2023-12-20T04:26:04;11.00;99.20
26304;DHT22;70693;48.680;8.890;2023-12-20T04:28:30;11.00;99.10
26304;DHT22;70693;48.680;8.890;2023-12-20T04:30:56;10.90;99.10
26304;DHT22;70693;48.680;8.890;2023-12-20T04:33:22;10.90;99.10
26304;DHT22;70693;48.680;8.890;2023-12-20T04:35:48;11.00;99.20
26304;DHT22;70693;48.680;8.890;2023-12-20T04:38:14;10.90;99.10
26304;DHT22;70693;48.680;8.890;2023-12-20T04:40:39;10.90;99.20
26304;DHT22;70693;48.680;8.890;2023-12-20T04:43:07;10.90;99.20
26304;DHT22;70693;48.680;8.890;2023-12-20T04:45:32;11.00;99.20
26304;DHT22;70693;48.680;8.890;2023-12-20T04:47:58;10.90;99.20
26304;DHT22;70693;48.680;8.890;2023-12-20T04:50:23;10.90;99.20
26304;DHT22;70693;48.680;8.890;2023-12-20T04:52:49;10.90;99.30
26304;DHT22;70693;48.680;8.890;2023-12-20T04:55:15;10.90;99.30
26304;DHT22;70693;48.680;8.890;2023-12-20T04:57:41;10.90;99.30
26304;DHT22;70693;48.680;8.890;2023-12-20T05:00:06;10.90;99.30
26304;DHT22;70693;48.680;8.890;2023-12-20T05:02:34;10.90;99.30
26304;DHT22;70693;48.680;8.890;2023-12-20T05:05:00;10.90;99.30
26304;DHT22;70693;48.680;8.890;2023-12-20T05:07:26;10.90;99.30
26304;DHT22;70693;48.680;8.890;2023-12-20T05:09:51;10.90;99.40
26304;DHT22;70693;48.680;8.890;2023-12-20T05:12:17;10.90;99.30
26304;DHT22;70693;48.680;8.890;2023-12-20T05:14:43;10.90;99.30
26304;DHT22;70693;48.680;8.890;2023-12-20T05:17:08;10.80;99.30
26304;DHT22;70693;48.680;8.890;2023-12-20T05:19:34;10.80;99.40
26304;DHT22;70693;48.680;8.890;2023-12-20T05:22:01;10.80;99.40
26304;DHT22;70693;48.680;8.890;2023-12-20T05:24:27;10.80;99.40
26304;DHT22;70693;48.680;8.890;2023-12-20T05:26:53;10.90;99.40
26304;DHT22;70693;48.680;8.890;2023-12-20T05:29:18;10.80;99.40
26304;DHT22;70693;48.680;8.890;2023-12-20T05:31:44;10.80;99.40
26304;DHT22;70693;48.680;8.890;2023-12-20T05:34:10;10.90;99.50
26304;DHT22;70693;48.680;8.890;2023-12-20T05:36:36;10.80;99.40
26304;DHT22;70693;48.680;8.890;2023-12-20T05:39:03;10.80;99.50
26304;DHT22;70693;48.680;8.890;2023-12-20T05:41:30;10.80;99.50
26304;DHT22;70693;48.680;8.890;2023-12-20T05:43:56;10.80;99.80
26304;DHT22;70693;48.680;8.890;2023-12-20T05:46:23;10.80;99.50
26304;DHT22;70693;48.680;8.890;2023-12-20T05:48:49;10.80;99.50
26304;DHT22;70693;48.680;8.890;2023-12-20T05:51:15;10.80;99.60
26304;DHT22;70693;48.680;8.890;2023-12-20T05:53:41;10.80;99.60
26304;DHT22;70693;48.680;8.890;2023-12-20T05:56:06;10.80;99.60
26304;DHT22;70693;48.680;8.890;2023-12-20T05:58:35;10.80;99.60
26304;DHT22;70693;48.680;8.890;2023-12-20T06:01:00;10.80;99.60
26304;DHT22;70693;48.680;8.890;2023-12-20T06:03:26;10.70;99.60
26304;DHT22;70693;48.680;8.890;2023-12-20T06:05:52;10.70;99.70
26304;DHT22;70693;48.680;8.890;2023-12-20T06:08:17;10.80;99.70
26304;DHT22;70693;48.680;8.890;2023-12-20T06:10:43;10.80;99.70
26304;DHT22;70693;48.680;8.890;2023-12-20T06:13:08;10.70;99.70
26304;DHT22;70693;48.680;8.890;2023-12-20T06:15:34;10.70;99.70
26304;DHT22;70693;48.680;8.890;2023-12-20T06:18:00;10.70;99.70
26304;DHT22;70693;48.680;8.890;2023-12-20T06:20:26;10.80;99.70
26304;DHT22;70693;48.680;8.890;2023-12-20T06:22:52;10.70;99.70
26304;DHT22;70693;48.680;8.890;2023-12-20T06:25:17;10.70;99.70
26304;DHT22;70693;48.680;8.890;2023-12-20T06:27:43;10.70;99.70
26304;DHT22;70693;48.680;8.890;2023-12-20T06:30:09;10.70;99.70
26304;DHT22;70693;48.680;8.890;2023-12-20T06:32:35;10.70;99.80
26304;DHT22;70693;48.680;8.890;2023-12-20T06:35:01;10.70;99.70
26304;DHT22;70693;48.680;8.890;2023-12-20T06:37:26;10.70;99.80
26304;DHT22;70693;48.680;8.890;2023-12-20T06:39:52;10.70;99.80
26304;DHT22;70693;48.680;8.890;2023-12-20T06:42:17;10.70;99.80
26304;DHT22;70693;48.680;8.890;2023-12-20T06:44:43;10.70;99.80
26304;DHT22;70693;48.680;8.890;2023-12-20T06:47:09;10.70;99.80
26304;DHT22;70693;48.680;8.890;2023-12-20T06:49:34;10.70;99.80
26304;DHT22;70693;48.680;8.890;2023-12-20T06:52:00;10.70;99.80
26304;DHT22;70693;48.680;8.890;2023-12-20T06:54:25;10.70;99.80
26304;DHT22;70693;48.680;8.890;2023-12-20T06:56:51;10.70;99.80
26304;DHT22;70693;48.680;8.890;2023-12-20T06:59:16;10.70;99.80
26304;DHT22;70693;48.680;8.890;2023-12-20T07:01:42;10.70;99.90
26304;DHT22;70693;48.680;8.890;2023-12-20T07:04:08;10.70;99.90
26304;DHT22;70693;48.680;8.890;2023-12-20T07:06:34;10.70;99.90
26304;DHT22;70693;48.680;8.890;2023-12-20T07:08:59;10.70;99.90
26304;DHT22;70693;48.680;8.890;2023-12-20T07:11:25;10.70;99.90
26304;DHT22;70693;48.680;8.890;2023-12-20T07:13:51;10.70;99.90
26304;DHT22;70693;48.680;8.890;2023-12-20T07:16:17;10.70;99.90
26304;DHT22;70693;48.680;8.890;2023-12-20T07:18:42;10.70;99.90
26304;DHT22;70693;48.680;8.890;2023-12-20T07:21:08;10.60;99.90
26304;DHT22;70693;48.680;8.890;2023-12-20T07:23:34;10.60;99.90
26304;DHT22;70693;48.680;8.890;2023-12-20T07:25:59;10.70;99.90
26304;DHT22;70693;48.680;8.890;2023-12-20T07:28:25;10.70;99.90
26304;DHT22;70693;48.680;8.890;2023-12-20T07:30:51;10.60;99.90
26304;DHT22;70693;48.680;8.890;2023-12-20T07:33:16;10.70;99.90
26304;DHT22;70693;48.680;8.890;2023-12-20T07:35:42;10.60;99.90
26304;DHT22;70693;48.680;8.890;2023-12-20T07:38:07;10.70;99.90
26304;DHT22;70693;48.680;8.890;2023-12-20T07:40:33;10.60;99.90
26304;DHT22;70693;48.680;8.890;2023-12-20T07:42:59;10.60;99.90
26304;DHT22;70693;48.680;8.890;2023-12-20T07:45:25;10.70;99.90
26304;DHT22;70693;48.680;8.890;2023-12-20T07:47:50;10.60;99.90
26304;DHT22;70693;48.680;8.890;2023-12-20T07:50:16;10.70;99.90
26304;DHT22;70693;48.680;8.890;2023-12-20T07:52:42;10.60;99.90
26304;DHT22;70693;48.680;8.890;2023-12-20T07:55:07;10.70;99.90
26304;DHT22;70693;48.680;8.890;2023-12-20T07:57:33;10.70;99.90
26304;DHT22;70693;48.680;8.890;2023-12-20T07:59:59;10.70;99.90
26304;DHT22;70693;48.680;8.890;2023-12-20T08:02:24;10.70;99.90
26304;DHT22;70693;48.680;8.890;2023-12-20T08:04:50;10.70;99.90
26304;DHT22;70693;48.680;8.890;2023-12-20T08:07:15;10.80;99.90
26304;DHT22;70693;48.680;8.890;2023-12-20T08:09:41;10.80;99.90
26304;DHT22;70693;48.680;8.890;2023-12-20T08:12:08;10.80;99.90
26304;DHT22;70693;48.680;8.890;2023-12-20T08:14:34;10.90;99.90
26304;DHT22;70693;48.680;8.890;2023-12-20T08:17:00;10.80;99.90
26304;DHT22;70693;48.680;8.890;2023-12-20T08:19:26;10.90;99.90
26304;DHT22;70693;48.680;8.890;2023-12-20T08:21:51;10.90;99.90
26304;DHT22;70693;48.680;8.890;2023-12-20T08:24:17;11.00;99.90
26304;DHT22;70693;48.680;8.890;2023-12-20T08:26:42;11.00;99.80
26304;DHT22;70693;48.680;8.890;2023-12-20T08:29:08;11.00;99.80
26304;DHT22;70693;48.680;8.890;2023-12-20T08:31:34;11.10;99.80
26304;DHT22;70693;48.680;8.890;2023-12-20T08:33:59;11.10;99.70
26304;DHT22;70693;48.680;8.890;2023-12-20T08:36:25;11.10;99.70
26304;DHT22;70693;48.680;8.890;2023-12-20T08:38:51;11.10;99.90
26304;DHT22;70693;48.680;8.890;2023-12-20T08:41:17;11.20;99.70
26304;DHT22;70693;48.680;8.890;2023-12-20T08:43:43;11.20;99.60
26304;DHT22;70693;48.680;8.890;2023-12-20T08:46:09;11.30;99.60
26304;DHT22;70693;48.680;8.890;2023-12-20T08:48:37;11.40;99.60
26304;DHT22;70693;48.680;8.890;2023-12-20T08:51:04;11.40;99.50
26304;DHT22;70693;48.680;8.890;2023-12-20T08:53:29;11.50;99.40
26304;DHT22;70693;48.680;8.890;2023-12-20T08:55:55;11.50;99.30
26304;DHT22;70693;48.680;8.890;2023-12-20T08:58:20;11.60;99.30
26304;DHT22;70693;48.680;8.890;2023-12-20T09:00:46;11.60;99.20
26304;DHT22;70693;48.680;8.890;2023-12-20T09:03:12;11.70;99.20
26304;DHT22;70693;48.680;8.890;2023-12-20T09:05:37;11.70;99.10
26304;DHT22;70693;48.680;8.890;2023-12-20T09:08:03;11.80;99.10
26304;DHT22;70693;48.680;8.890;2023-12-20T09:10:29;11.90;99.00
26304;DHT22;70693;48.680;8.890;2023-12-20T09:12:54;12.00;98.90
26304;DHT22;70693;48.680;8.890;2023-12-20T09:15:24;12.10;98.80
26304;DHT22;70693;48.680;8.890;2023-12-20T09:17:50;12.20;98.70
26304;DHT22;70693;48.680;8.890;2023-12-20T09:20:16;12.30;98.60
26304;DHT22;70693;48.680;8.890;2023-12-20T09:22:42;12.30;98.50
26304;DHT22;70693;48.680;8.890;2023-12-20T09:25:08;12.40;98.40
26304;DHT22;70693;48.680;8.890;2023-12-20T09:27:34;12.60;98.40
26304;DHT22;70693;48.680;8.890;2023-12-20T09:30:00;12.60;98.30
26304;DHT22;70693;48.680;8.890;2023-12-20T09:32:25;12.70;98.20
26304;DHT22;70693;48.680;8.890;2023-12-20T09:34:51;12.80;98.50
26304;DHT22;70693;48.680;8.890;2023-12-20T09:37:17;12.80;97.90
26304;DHT22;70693;48.680;8.890;2023-12-20T09:39:42;12.90;97.50
26304;DHT22;70693;48.680;8.890;2023-12-20T09:42:11;13.00;97.60
26304;DHT22;70693;48.680;8.890;2023-12-20T09:44:37;13.10;97.70
26304;DHT22;70693;48.680;8.890;2023-12-20T09:47:06;13.30;97.70
26304;DHT22;70693;48.680;8.890;2023-12-20T09:49:33;13.50;98.00
26304;DHT22;70693;48.680;8.890;2023-12-20T09:52:00;13.60;97.60
26304;DHT22;70693;48.680;8.890;2023-12-20T09:54:27;13.70;97.60
26304;DHT22;70693;48.680;8.890;2023-12-20T09:56:53;13.80;97.50
26304;DHT22;70693;48.680;8.890;2023-12-20T09:59:19;13.90;97.40
26304;DHT22;70693;48.680;8.890;2023-12-20T10:01:45;14.10;97.70
26304;DHT22;70693;48.680;8.890;2023-12-20T10:04:12;14.20;97.70
26304;DHT22;70693;48.680;8.890;2023-12-20T10:06:42;14.20;97.30
26304;DHT22;70693;48.680;8.890;2023-12-20T10:09:11;14.30;97.30
26304;DHT22;70693;48.680;8.890;2023-12-20T10:11:38;14.30;97.20
26304;DHT22;70693;48.680;8.890;2023-12-20T10:14:05;14.40;97.10
26304;DHT22;70693;48.680;8.890;2023-12-20T10:16:31;14.50;97.10
26304;DHT22;70693;48.680;8.890;2023-12-20T10:18:58;14.50;97.00
26304;DHT22;70693;48.680;8.890;2023-12-20T10:21:25;14.60;97.00
26304;DHT22;70693;48.680;8.890;2023-12-20T10:23:54;14.60;97.00
26304;DHT22;70693;48.680;8.890;2023-12-20T10:26:21;14.70;96.90
26304;DHT22;70693;48.680;8.890;2023-12-20T10:28:53;14.70;96.90
26304;DHT22;70693;48.680;8.890;2023-12-20T10:31:46;14.70;96.90
26304;DHT22;70693;48.680;8.890;2023-12-20T10:34:11;14.70;96.90
26304;DHT22;70693;48.680;8.890;2023-12-20T10:36:37;14.70;96.40
26304;DHT22;70693;48.680;8.890;2023-12-20T10:39:03;14.70;95.90
26304;DHT22;70693;48.680;8.890;2023-12-20T10:41:32;14.70;95.70
26304;DHT22;70693;48.680;8.890;2023-12-20T10:44:00;14.70;95.50
26304;DHT22;70693;48.680;8.890;2023-12-20T10:46:27;14.70;95.40
26304;DHT22;70693;48.680;8.890;2023-12-20T10:48:54;14.70;95.40
26304;DHT22;70693;48.680;8.890;2023-12-20T10:51:21;14.70;95.30
26304;DHT22;70693;48.680;8.890;2023-12-20T10:53:48;14.80;95.30
26304;DHT22;70693;48.680;8.890;2023-12-20T10:56:18;14.80;95.30
26304;DHT22;70693;48.680;8.890;2023-12-20T10:58:48;14.80;95.20
26304;DHT22;70693;48.680;8.890;2023-12-20T11:01:16;14.80;95.20
26304;DHT22;70693;48.680;8.890;2023-12-20T11:03:49;14.80;95.20
26304;DHT22;70693;48.680;8.890;2023-12-20T11:06:29;14.80;95.10
26304;DHT22;70693;48.680;8.890;2023-12-20T11:08:59;14.80;95.10
26304;DHT22;70693;48.680;8.890;2023-12-20T11:14:08;14.90;95.10
26304;DHT22;70693;48.680;8.890;2023-12-20T11:16:38;14.90;95.00
26304;DHT22;70693;48.680;8.890;2023-12-20T11:19:07;14.90;95.00
26304;DHT22;70693;48.680;8.890;2023-12-20T11:21:33;14.90;95.00
26304;DHT22;70693;48.680;8.890;2023-12-20T11:24:03;14.90;95.00
26304;DHT22;70693;48.680;8.890;2023-12-20T11:26:29;14.90;94.90
26304;DHT22;70693;48.680;8.890;2023-12-20T11:29:30;14.90;94.90
26304;DHT22;70693;48.680;8.890;2023-12-20T11:31:59;15.00;94.80
26304;DHT22;70693;48.680;8.890;2023-12-20T11:34:27;15.00;94.80
26304;DHT22;70693;48.680;8.890;2023-12-20T11:36:58;15.00;94.70
26304;DHT22;70693;48.680;8.890;2023-12-20T11:39:26;15.00;94.70
26304;DHT22;70693;48.680;8.890;2023-12-20T11:41:52;15.00;94.60
26304;DHT22;70693;48.680;8.890;2023-12-20T11:44:19;15.00;94.60
26304;DHT22;70693;48.680;8.890;2023-12-20T11:46:46;15.00;94.60
26304;DHT22;70693;48.680;8.890;2023-12-20T11:49:11;15.00;94.60
26304;DHT22;70693;48.680;8.890;2023-12-20T11:51:41;15.00;94.60
26304;DHT22;70693;48.680;8.890;2023-12-20T11:54:07;15.00;94.50
26304;DHT22;70693;48.680;8.890;2023-12-20T11:56:35;15.00;94.50
26304;DHT22;70693;48.680;8.890;2023-12-20T11:59:01;15.00;94.50
26304;DHT22;70693;48.680;8.890;2023-12-20T12:01:27;15.00;94.50
26304;DHT22;70693;48.680;8.890;2023-12-20T12:04:07;15.00;94.50
26304;DHT22;70693;48.680;8.890;2023-12-20T12:06:33;15.00;94.50
26304;DHT22;70693;48.680;8.890;2023-12-20T12:08:59;15.00;94.50
26304;DHT22;70693;48.680;8.890;2023-12-20T12:11:25;15.00;94.40
26304;DHT22;70693;48.680;8.890;2023-12-20T12:13:51;15.00;94.40
26304;DHT22;70693;48.680;8.890;2023-12-20T12:16:17;15.00;94.40
26304;DHT22;70693;48.680;8.890;2023-12-20T12:18:44;15.00;94.40
26304;DHT22;70693;48.680;8.890;2023-12-20T12:21:11;15.00;94.40
26304;DHT22;70693;48.680;8.890;2023-12-20T12:23:43;15.00;94.40
26304;DHT22;70693;48.680;8.890;2023-12-20T12:26:09;15.00;94.40
26304;DHT22;70693;48.680;8.890;2023-12-20T12:28:35;15.00;94.40
26304;DHT22;70693;48.680;8.890;2023-12-20T12:31:00;15.00;94.40
26304;DHT22;70693;48.680;8.890;2023-12-20T12:33:26;15.00;94.40
26304;DHT22;70693;48.680;8.890;2023-12-20T12:35:52;15.00;94.40
26304;DHT22;70693;48.680;8.890;2023-12-20T12:38:22;15.00;94.40
26304;DHT22;70693;48.680;8.890;2023-12-20T12:40:48;15.00;94.40
26304;DHT22;70693;48.680;8.890;2023-12-20T12:43:14;15.00;94.40
26304;DHT22;70693;48.680;8.890;2023-12-20T12:45:39;15.00;94.40
26304;DHT22;70693;48.680;8.890;2023-12-20T12:48:06;15.00;94.40
26304;DHT22;70693;48.680;8.890;2023-12-20T12:50:32;15.00;94.40
26304;DHT22;70693;48.680;8.890;2023-12-20T12:52:57;15.00;94.40
26304;DHT22;70693;48.680;8.890;2023-12-20T12:55:23;15.00;94.40
26304;DHT22;70693;48.680;8.890;2023-12-20T12:57:48;15.00;94.40
26304;DHT22;70693;48.680;8.890;2023-12-20T13:00:14;15.00;94.40
26304;DHT22;70693;48.680;8.890;2023-12-20T13:02:40;15.00;94.40
26304;DHT22;70693;48.680;8.890;2023-12-20T13:05:09;15.00;94.40
26304;DHT22;70693;48.680;8.890;2023-12-20T13:07:35;15.00;94.40
26304;DHT22;70693;48.680;8.890;2023-12-20T13:10:01;15.00;94.40
26304;DHT22;70693;48.680;8.890;2023-12-20T13:12:26;15.00;94.40
26304;DHT22;70693;48.680;8.890;2023-12-20T13:14:52;15.00;94.30
26304;DHT22;70693;48.680;8.890;2023-12-20T13:17:19;15.10;94.40
26304;DHT22;70693;48.680;8.890;2023-12-20T13:19:44;15.10;94.30
26304;DHT22;70693;48.680;8.890;2023-12-20T13:22:10;15.10;94.30
26304;DHT22;70693;48.680;8.890;2023-12-20T13:24:36;15.10;93.90
26304;DHT22;70693;48.680;8.890;2023-12-20T13:27:01;15.00;93.40
26304;DHT22;70693;48.680;8.890;2023-12-20T13:29:27;15.00;93.00
26304;DHT22;70693;48.680;8.890;2023-12-20T13:31:53;15.10;93.00
26304;DHT22;70693;48.680;8.890;2023-12-20T13:34:18;15.10;93.10
26304;DHT22;70693;48.680;8.890;2023-12-20T13:36:45;15.10;93.10
26304;DHT22;70693;48.680;8.890;2023-12-20T13:39:15;15.10;93.10
26304;DHT22;70693;48.680;8.890;2023-12-20T13:41:41;15.10;93.20
26304;DHT22;70693;48.680;8.890;2023-12-20T13:44:06;15.20;93.20
26304;DHT22;70693;48.680;8.890;2023-12-20T13:46:32;15.30;93.30
26304;DHT22;70693;48.680;8.890;2023-12-20T13:48:57;15.30;93.30
26304;DHT22;70693;48.680;8.890;2023-12-20T13:51:23;15.30;93.30
26304;DHT22;70693;48.680;8.890;2023-12-20T13:53:49;15.30;93.30
26304;DHT22;70693;48.680;8.890;2023-12-20T13:56:15;15.30;93.30
26304;DHT22;70693;48.680;8.890;2023-12-20T13:58:41;15.30;93.30
26304;DHT22;70693;48.680;8.890;2023-12-20T14:01:08;15.30;93.30
26304;DHT22;70693;48.680;8.890;2023-12-20T14:03:34;15.30;93.30
26304;DHT22;70693;48.680;8.890;2023-12-20T14:06:00;15.40;93.30
26304;DHT22;70693;48.680;8.890;2023-12-20T14:08:27;15.40;93.30
26304;DHT22;70693;48.680;8.890;2023-12-20T14:10:52;15.40;93.30
26304;DHT22;70693;48.680;8.890;2023-12-20T14:13:18;15.30;93.30
26304;DHT22;70693;48.680;8.890;2023-12-20T14:15:44;15.40;93.30
26304;DHT22;70693;48.680;8.890;2023-12-20T14:18:10;15.40;93.30
26304;DHT22;70693;48.680;8.890;2023-12-20T14:20:36;15.40;93.70
26304;DHT22;70693;48.680;8.890;2023-12-20T14:23:02;15.40;93.40
26304;DHT22;70693;48.680;8.890;2023-12-20T14:25:28;15.40;93.40
26304;DHT22;70693;48.680;8.890;2023-12-20T14:27:54;15.40;93.40
26304;DHT22;70693;48.680;8.890;2023-12-20T14:30:19;15.40;93.50
26304;DHT22;70693;48.680;8.890;2023-12-20T14:32:45;15.40;93.50
26304;DHT22;70693;48.680;8.890;2023-12-20T14:35:13;15.40;93.50
26304;DHT22;70693;48.680;8.890;2023-12-20T14:37:39;15.40;93.50
26304;DHT22;70693;48.680;8.890;2023-12-20T14:40:07;15.40;93.50
26304;DHT22;70693;48.680;8.890;2023-12-20T14:42:36;15.40;93.50
26304;DHT22;70693;48.680;8.890;2023-12-20T14:45:02;15.40;93.50
26304;DHT22;70693;48.680;8.890;2023-12-20T14:47:28;15.40;93.50
26304;DHT22;70693;48.680;8.890;2023-12-20T14:49:54;15.30;93.60
26304;DHT22;70693;48.680;8.890;2023-12-20T14:52:19;15.30;93.60
26304;DHT22;70693;48.680;8.890;2023-12-20T14:54:45;15.30;93.60
26304;DHT22;70693;48.680;8.890;2023-12-20T14:57:10;15.30;93.60
26304;DHT22;70693;48.680;8.890;2023-12-20T14:59:36;15.30;93.60
26304;DHT22;70693;48.680;8.890;2023-12-20T15:02:02;15.30;93.70
26304;DHT22;70693;48.680;8.890;2023-12-20T15:04:31;15.30;93.70
26304;DHT22;70693;48.680;8.890;2023-12-20T15:06:57;15.30;93.70
26304;DHT22;70693;48.680;8.890;2023-12-20T15:09:22;15.30;93.70
26304;DHT22;70693;48.680;8.890;2023-12-20T15:11:48;15.30;93.70
26304;DHT22;70693;48.680;8.890;2023-12-20T15:14:13;15.30;93.70
26304;DHT22;70693;48.680;8.890;2023-12-20T15:16:45;15.30;93.80
26304;DHT22;70693;48.680;8.890;2023-12-20T15:19:12;15.20;93.80
26304;DHT22;70693;48.680;8.890;2023-12-20T15:21:38;15.20;93.80
26304;DHT22;70693;48.680;8.890;2023-12-20T15:24:05;15.20;93.80
26304;DHT22;70693;48.680;8.890;2023-12-20T15:26:38;15.20;93.80